Time;durP1;ratioP1;P1;durP2;ratioP2;P2;SDS_P1;SDS_P2;PMS_P1;PMS_P2;Temp;Humidity;BMP_temperature;BMP_pressure;BME280_temperature;BME280_humidity;BME280_pressure;Samples;Min_cycle;Max_cycle;Signal;HPM_P1;HPM_P2
2023/05/19 00:00:09;;;;;;;17.73;9.68;;;;;;;-146.25;100.00;52157.34;2088055;28;20266;-61
2023/05/19 00:01:17;;;;;;;20.83;9.30;;;;;;;-146.25;100.00;52175.56;2088329;28;20045;-61
2023/05/19 00:02:19;;;;;;;21.10;10.35;;;;;;;-146.25;100.00;52181.66;2087756;28;36311;-61
2023/05/19 00:03:22;;;;;;;21.15;9.32;;;;;;;-146.25;100.00;52193.81;2087307;28;34419;-61
2023/05/19 00:04:24;;;;;;;19.20;9.52;;;;;;;-146.25;100.00;52173.56;2087695;28;38507;-61
2023/05/19 00:05:26;;;;;;;18.52;8.38;;;;;;;-146.25;100.00;52149.22;2087942;28;23610;-61
2023/05/19 00:06:32;;;;;;;16.67;8.52;;;;;;;-146.25;100.00;52157.34;2087592;28;32978;-61
2023/05/19 00:07:37;;;;;;;19.40;9.43;;;;;;;-146.25;100.00;52153.28;2087844;28;36698;-61
2023/05/19 00:08:39;;;;;;;21.83;10.13;;;;;;;-146.25;100.00;52193.81;2087393;28;33015;-61
2023/05/19 00:09:41;;;;;;;20.50;9.00;;;;;;;-146.25;100.00;52173.56;2086743;28;35115;-61
2023/05/19 00:10:43;;;;;;;18.40;8.95;;;;;;;-146.25;100.00;52183.69;2087168;28;36654;-59
2023/05/19 00:11:48;;;;;;;18.67;9.43;;;;;;;-146.25;100.00;52137.06;2087428;28;34104;-61
2023/05/19 00:12:50;;;;;;;24.27;9.40;;;;;;;-146.25;100.00;52159.34;2087335;28;37094;-61
2023/05/19 00:13:57;;;;;;;20.55;9.55;;;;;;;-146.25;100.00;52165.44;2087782;28;32287;-61
2023/05/19 00:15:02;;;;;;;19.50;9.63;;;;;;;-146.25;100.00;52149.22;2086356;28;35758;-61
2023/05/19 00:16:08;;;;;;;21.02;9.45;;;;;;;-146.25;100.00;52177.59;2087390;28;34645;-61
2023/05/19 00:17:10;;;;;;;16.50;8.50;;;;;;;-146.25;100.00;52173.56;2087668;28;33495;-61
2023/05/19 00:18:12;;;;;;;19.65;8.68;;;;;;;-146.25;100.00;52169.50;2087359;28;37992;-61
2023/05/19 00:19:15;;;;;;;20.08;9.48;;;;;;;-146.25;100.00;52173.56;2088078;28;20696;-61
2023/05/19 00:20:17;;;;;;;23.85;9.73;;;;;;;-146.25;100.00;52181.66;2087469;28;32704;-61
2023/05/19 00:21:19;;;;;;;17.25;9.45;;;;;;;-146.25;100.00;52167.47;2087531;28;36284;-61
2023/05/19 00:22:21;;;;;;;19.02;9.93;;;;;;;-146.25;100.00;52173.56;2088695;28;35381;-61
2023/05/19 00:23:23;;;;;;;18.13;9.63;;;;;;;-146.25;100.00;52171.53;2088396;28;38020;-61
2023/05/19 00:24:25;;;;;;;16.50;8.73;;;;;;;-146.25;100.00;52193.81;2089712;28;20029;-61
2023/05/19 00:25:29;;;;;;;19.70;9.93;;;;;;;-146.25;100.00;52165.44;2088648;28;37530;-60
2023/05/19 00:26:31;;;;;;;17.00;9.52;;;;;;;-146.25;100.00;52185.72;2088618;28;35925;-61
2023/05/19 00:27:37;;;;;;;22.23;9.40;;;;;;;-146.25;100.00;52179.63;2088959;28;20886;-61
2023/05/19 00:28:39;;;;;;;23.17;10.05;;;;;;;-146.25;100.00;52157.34;2088867;28;20041;-61
2023/05/19 00:29:43;;;;;;;18.20;9.90;;;;;;;-146.25;100.00;52169.50;2089053;28;25402;-61
2023/05/19 00:30:45;;;;;;;18.33;9.80;;;;;;;-146.25;100.00;52169.50;2089559;28;28358;-61
2023/05/19 00:31:47;;;;;;;17.25;9.82;;;;;;;-146.25;100.00;52159.34;2089597;28;20040;-61
2023/05/19 00:32:48;;;;;;;19.38;9.82;;;;;;;-146.25;100.00;52135.03;2088975;28;20977;-61
2023/05/19 00:33:51;;;;;;;22.02;10.05;;;;;;;-146.25;100.00;52197.88;2088482;28;20927;-61
2023/05/19 00:34:53;;;;;;;20.50;10.20;;;;;;;-146.25;100.00;52206.00;2080863;28;20835;-61
2023/05/19 00:35:55;;;;;;;20.05;10.18;;;;;;;-146.25;100.00;52143.13;2079927;28;31261;-61
2023/05/19 00:36:56;;;;;;;21.45;9.60;;;;;;;-146.25;100.00;52157.34;2080294;28;29324;-60
2023/05/19 00:37:58;;;;;;;26.73;10.50;;;;;;;-146.25;100.00;52173.56;2079895;28;25899;-61
2023/05/19 00:39:00;;;;;;;22.95;10.93;;;;;;;-146.25;100.00;52187.75;2088626;28;21286;-60
2023/05/19 00:40:04;;;;;;;24.98;11.25;;;;;;;-146.25;100.00;52161.38;2096778;28;20053;-61
2023/05/19 00:41:06;;;;;;;20.35;9.75;;;;;;;-146.25;100.00;52169.50;2089424;28;20147;-60
2023/05/19 00:42:11;;;;;;;20.08;10.38;;;;;;;-146.25;100.00;52183.69;2087868;28;20038;-61
2023/05/19 00:43:12;;;;;;;19.10;9.55;;;;;;;-146.25;100.00;52155.31;2088088;28;28696;-61
2023/05/19 00:44:14;;;;;;;18.05;10.23;;;;;;;-146.25;100.00;52175.56;2089032;28;28351;-61
2023/05/19 00:45:16;;;;;;;18.30;10.30;;;;;;;-146.25;100.00;52165.44;2088771;28;21214;-60
2023/05/19 00:46:18;;;;;;;21.17;10.18;;;;;;;-146.25;100.00;52167.47;2088107;28;21930;-61
2023/05/19 00:47:21;;;;;;;19.13;10.73;;;;;;;-146.25;100.00;52201.94;2089896;28;20948;-60
2023/05/19 00:48:24;;;;;;;21.38;10.93;;;;;;;-146.25;100.00;52175.56;2089436;28;20155;-61
2023/05/19 00:49:26;;;;;;;20.00;10.10;;;;;;;-146.25;100.00;52183.69;2080508;28;20184;-60
2023/05/19 00:50:33;;;;;;;17.60;10.30;;;;;;;-146.25;100.00;52189.78;2080349;28;28838;-61
2023/05/19 00:51:36;;;;;;;21.05;9.68;;;;;;;-146.25;100.00;52169.50;2088786;28;33372;-60
2023/05/19 00:52:37;;;;;;;23.77;10.57;;;;;;;-146.25;100.00;52167.47;2088368;28;26872;-61
2023/05/19 00:53:39;;;;;;;23.70;10.45;;;;;;;-146.25;100.00;52149.22;2072358;28;25602;-61
2023/05/19 00:54:43;;;;;;;27.38;12.07;;;;;;;-146.25;100.00;52173.56;2072101;28;25308;-61
2023/05/19 00:55:46;;;;;;;17.50;10.32;;;;;;;-146.25;100.00;52159.34;2089126;28;27465;-61
2023/05/19 00:56:48;;;;;;;20.85;11.15;;;;;;;-146.25;100.00;52193.81;2079527;28;27702;-61
2023/05/19 00:57:50;;;;;;;23.38;10.00;;;;;;;-146.25;100.00;52167.47;2080750;28;20085;-61
2023/05/19 00:58:53;;;;;;;21.48;10.85;;;;;;;-146.25;100.00;52161.38;2087879;28;28239;-61
2023/05/19 00:59:55;;;;;;;17.88;10.10;;;;;;;-146.25;100.00;52153.28;2080908;28;20052;-61
2023/05/19 01:01:02;;;;;;;21.83;10.82;;;;;;;-146.25;100.00;52151.25;2080880;28;20780;-61
2023/05/19 01:02:05;;;;;;;19.23;10.60;;;;;;;-146.25;100.00;52169.50;2088315;28;25140;-61
2023/05/19 01:03:09;;;;;;;26.50;10.68;;;;;;;-146.25;100.00;52169.50;2088201;28;25519;-60
2023/05/19 01:04:15;;;;;;;18.75;9.60;;;;;;;-146.25;100.00;52187.75;2088774;28;20164;-61
2023/05/19 01:05:18;;;;;;;17.90;9.82;;;;;;;-146.25;100.00;52157.34;2088149;28;20069;-60
2023/05/19 01:06:20;;;;;;;20.52;10.15;;;;;;;-146.25;100.00;52128.94;2080163;28;27303;-61
2023/05/19 01:07:24;;;;;;;21.85;10.80;;;;;;;-146.25;100.00;52189.78;2080362;28;25752;-60
2023/05/19 01:08:26;;;;;;;19.77;10.27;;;;;;;-146.25;100.00;52165.44;2088184;28;30702;-60
2023/05/19 01:09:30;;;;;;;25.05;10.63;;;;;;;-146.25;100.00;52206.00;2088083;28;20115;-60
2023/05/19 01:10:32;;;;;;;19.67;10.05;;;;;;;-146.25;100.00;52173.56;2089176;28;23344;-60
2023/05/19 01:11:36;;;;;;;22.38;10.68;;;;;;;-146.25;100.00;52151.25;2088487;28;29655;-61
2023/05/19 01:12:39;;;;;;;18.73;10.02;;;;;;;-146.25;100.00;52161.38;2088593;28;20053;-60
2023/05/19 01:13:42;;;;;;;19.60;10.07;;;;;;;-146.25;100.00;52177.59;2080039;28;21080;-61
2023/05/19 01:14:44;;;;;;;25.67;10.82;;;;;;;-146.25;100.00;52165.44;2072425;28;27922;-61
2023/05/19 01:16:06;;;;;;;20.75;10.07;;;;;;;-146.25;100.00;52137.06;2080728;28;22846;-61
2023/05/19 01:17:43;;;;;;;16.48;9.63;;;;;;;-146.25;100.00;52179.63;2079953;28;20038;-60
2023/05/19 01:19:33;;;;;;;20.67;8.43;;;;;;;-146.25;100.00;52153.28;2068482;28;26885;-61
2023/05/19 01:20:38;;;;;;;20.85;9.55;;;;;;;-146.25;100.00;52167.47;2087218;28;32106;-61
2023/05/19 01:22:02;;;;;;;20.90;10.77;;;;;;;-146.25;100.00;52218.16;2088652;28;33495;-61
2023/05/19 01:23:56;;;;;;;21.48;10.60;;;;;;;-146.25;100.00;52189.78;2079807;28;26573;-61
2023/05/19 01:25:22;;;;;;;22.08;10.27;;;;;;;-146.25;100.00;52157.34;2087587;28;27544;-60
2023/05/19 01:26:51;;;;;;;22.88;10.38;;;;;;;-146.25;100.00;52157.34;2088351;28;20909;-60
2023/05/19 01:28:08;;;;;;;22.27;10.32;;;;;;;-146.25;100.00;52177.59;2088362;28;20807;-60
2023/05/19 01:30:12;;;;;;;21.75;11.35;;;;;;;-146.25;100.00;52175.56;2080121;28;20064;-60
2023/05/19 01:31:19;;;;;;;22.02;10.65;;;;;;;-146.25;100.00;52157.34;2089080;28;20041;-61
2023/05/19 01:32:25;;;;;;;24.25;12.05;;;;;;;-146.25;100.00;52220.19;2088114;28;28667;-60
2023/05/19 01:33:30;;;;;;;29.90;11.90;;;;;;;-146.25;100.00;52149.22;2079416;28;26774;-60
2023/05/19 01:34:41;;;;;;;24.05;11.85;;;;;;;-146.25;100.00;52157.34;2080972;28;29079;-60
2023/05/19 01:35:45;;;;;;;20.27;11.43;;;;;;;-146.25;100.00;52179.63;2088102;28;24576;-60
2023/05/19 01:36:50;;;;;;;23.65;12.52;;;;;;;-146.25;100.00;52203.97;2079727;28;27521;-60
2023/05/19 01:37:59;;;;;;;33.15;14.07;;;;;;;-146.25;100.00;52181.66;2079967;28;20050;-61
2023/05/19 01:39:02;;;;;;;29.48;14.02;;;;;;;-146.25;100.00;52153.28;2081769;28;29399;-60
2023/05/19 01:40:07;;;;;;;27.92;14.15;;;;;;;-146.25;100.00;52124.91;2088085;28;22517;-61
2023/05/19 01:41:10;;;;;;;27.15;14.23;;;;;;;-146.25;100.00;52175.56;2088296;28;21028;-60
2023/05/19 01:42:14;;;;;;;25.65;14.05;;;;;;;-146.25;100.00;52147.19;2087974;28;31110;-61
2023/05/19 01:43:20;;;;;;;28.60;14.23;;;;;;;-146.25;100.00;52159.34;2088667;28;20045;-60
2023/05/19 01:44:22;;;;;;;32.47;15.35;;;;;;;-146.25;100.00;52175.56;2079777;28;31064;-61
2023/05/19 01:45:27;;;;;;;28.40;13.80;;;;;;;-146.25;100.00;52173.56;2081288;28;20034;-60
2023/05/19 01:46:33;;;;;;;29.60;13.82;;;;;;;-146.25;100.00;52122.88;2088490;28;31810;-60
2023/05/19 01:47:38;;;;;;;31.02;15.20;;;;;;;-146.25;100.00;52165.44;2089155;28;22735;-60
2023/05/19 01:48:43;;;;;;;35.08;15.00;;;;;;;-146.25;100.00;52161.38;2088627;28;28742;-61
2023/05/19 01:49:45;;;;;;;36.35;15.95;;;;;;;-146.25;100.00;52169.50;2087870;28;28400;-60
2023/05/19 01:50:46;;;;;;;32.88;15.80;;;;;;;-146.25;100.00;52149.22;2087369;28;23639;-61
2023/05/19 01:51:49;;;;;;;36.83;16.90;;;;;;;-146.25;100.00;52161.38;2087845;28;20049;-61
2023/05/19 01:52:59;;;;;;;31.23;15.18;;;;;;;-146.25;100.00;52161.38;2087508;28;20052;-61
2023/05/19 01:54:03;;;;;;;36.58;15.45;;;;;;;-146.25;100.00;52185.72;2071970;28;20043;-61
2023/05/19 01:55:06;;;;;;;36.97;16.48;;;;;;;-146.25;100.00;52206.00;2071756;28;22287;-61
2023/05/19 01:56:07;;;;;;;35.05;18.13;;;;;;;-146.25;100.00;52143.13;2087515;28;34251;-61
2023/05/19 01:57:31;;;;;;;38.42;17.38;;;;;;;-146.25;100.00;52128.94;2087539;28;28472;-60
2023/05/19 01:58:45;;;;;;;35.92;15.55;;;;;;;-146.25;100.00;52135.03;2080094;28;20084;-61
2023/05/19 02:00:10;;;;;;;36.75;16.27;;;;;;;-146.25;100.00;52157.34;2071757;28;20991;-61
2023/05/19 02:01:46;;;;;;;30.48;14.98;;;;;;;-146.25;100.00;52139.09;2084027;28;20065;-61
2023/05/19 02:03:15;;;;;;;33.50;15.93;;;;;;;-146.25;100.00;52163.41;2080608;28;31962;-61
2023/05/19 02:04:39;;;;;;;28.25;13.00;;;;;;;-146.25;100.00;52179.63;2080267;28;21187;-61
2023/05/19 02:06:31;;;;;;;27.88;14.13;;;;;;;-146.25;100.00;52149.22;2071882;28;20046;-61
2023/05/19 02:08:19;;;;;;;37.70;15.43;;;;;;;-146.25;100.00;52175.56;2077720;28;35247;-61
2023/05/19 02:09:51;;;;;;;35.40;15.55;;;;;;;-146.25;100.00;52120.84;2080205;28;26050;-61
2023/05/19 02:11:08;;;;;;;32.65;14.70;;;;;;;-146.25;100.00;52185.72;2080767;28;20124;-61
2023/05/19 02:12:24;;;;;;;27.58;14.52;;;;;;;-146.25;100.00;52133.00;2080284;28;27514;-61
2023/05/19 02:13:32;;;;;;;36.47;16.40;;;;;;;-146.25;100.00;52128.94;2080374;28;30997;-61
2023/05/19 02:14:48;;;;;;;30.63;15.88;;;;;;;-146.25;100.00;52159.34;2071869;28;20185;-60
2023/05/19 02:15:53;;;;;;;34.08;15.85;;;;;;;-146.25;100.00;52133.00;2081686;28;20143;-61
2023/05/19 02:16:58;;;;;;;32.92;16.25;;;;;;;-146.25;100.00;52173.56;2077953;28;20045;-61
2023/05/19 02:18:03;;;;;;;30.65;14.85;;;;;;;-146.25;100.00;52173.56;2063922;28;20050;-61
2023/05/19 02:19:05;;;;;;;34.95;15.70;;;;;;;-146.25;100.00;52153.28;2083433;28;32521;-61
2023/05/19 02:20:08;;;;;;;28.40;14.65;;;;;;;-146.25;100.00;52139.09;2087128;28;21049;-61
2023/05/19 02:21:12;;;;;;;35.35;16.52;;;;;;;-146.25;100.00;52206.00;2080192;28;20057;-61
2023/05/19 02:22:14;;;;;;;33.90;15.50;;;;;;;-146.25;100.00;52110.69;2088095;28;20127;-61
2023/05/19 02:23:16;;;;;;;32.47;16.88;;;;;;;-146.25;100.00;52183.69;2087938;28;30175;-61
2023/05/19 02:24:19;;;;;;;35.05;17.75;;;;;;;-146.25;100.00;52139.09;2088429;28;27873;-61
2023/05/19 02:25:22;;;;;;;34.88;16.88;;;;;;;-146.25;100.00;52193.81;2088206;28;20080;-61
2023/05/19 02:26:25;;;;;;;38.15;16.83;;;;;;;-146.25;100.00;52175.56;2087146;28;30258;-61
2023/05/19 02:27:27;;;;;;;33.55;16.02;;;;;;;-146.25;100.00;52197.88;2088424;28;20041;-61
2023/05/19 02:28:31;;;;;;;30.42;15.80;;;;;;;-146.25;100.00;52133.00;2087871;28;20802;-61
2023/05/19 02:29:35;;;;;;;30.52;15.48;;;;;;;-146.25;100.00;52173.56;2087584;28;34647;-61
2023/05/19 02:30:37;;;;;;;36.35;17.45;;;;;;;-146.25;100.00;52147.19;2088120;28;20050;-61
2023/05/19 02:31:38;;;;;;;39.50;16.05;;;;;;;-146.25;100.00;52177.59;2087532;28;27017;-61
2023/05/19 02:32:45;;;;;;;37.58;17.23;;;;;;;-146.25;100.00;52149.22;2088353;28;24409;-59
2023/05/19 02:33:47;;;;;;;29.27;15.32;;;;;;;-146.25;100.00;52153.28;2089059;28;31210;-61
2023/05/19 02:34:49;;;;;;;29.73;16.02;;;;;;;-146.25;100.00;52147.19;2087101;28;24694;-61
2023/05/19 02:35:50;;;;;;;26.20;14.57;;;;;;;-146.25;100.00;52208.03;2079922;28;20075;-61
2023/05/19 02:36:52;;;;;;;35.30;16.30;;;;;;;-146.25;100.00;52114.75;2078732;28;37013;-61
2023/05/19 02:37:54;;;;;;;30.73;15.85;;;;;;;-146.25;100.00;52177.59;2087891;28;28131;-61
2023/05/19 02:38:56;;;;;;;26.30;14.05;;;;;;;-146.25;100.00;52197.88;2088419;28;20048;-61
2023/05/19 02:39:58;;;;;;;31.00;15.43;;;;;;;-146.25;100.00;52179.63;2087669;28;20048;-61
2023/05/19 02:41:00;;;;;;;27.98;14.30;;;;;;;-146.25;100.00;52122.88;2088139;28;20037;-61
2023/05/19 02:42:02;;;;;;;31.70;16.10;;;;;;;-146.25;100.00;52167.47;2088032;28;32077;-61
2023/05/19 02:43:03;;;;;;;29.27;15.02;;;;;;;-146.25;100.00;52169.50;2087588;28;20037;-61
2023/05/19 02:44:06;;;;;;;24.27;13.57;;;;;;;-146.25;100.00;52169.50;2088435;28;20095;-61
2023/05/19 02:45:11;;;;;;;27.15;14.65;;;;;;;-146.25;100.00;52153.28;2086933;28;20156;-61
2023/05/19 02:46:14;;;;;;;27.42;13.70;;;;;;;-146.25;100.00;52137.06;2079672;28;20046;-61
2023/05/19 02:47:16;;;;;;;23.92;14.02;;;;;;;-146.25;100.00;52139.09;2071478;28;20031;-61
2023/05/19 02:48:18;;;;;;;30.02;14.98;;;;;;;-146.25;100.00;52147.19;2071338;28;20035;-61
2023/05/19 02:49:20;;;;;;;36.75;15.50;;;;;;;-146.25;100.00;52120.84;2079739;28;20084;-60
2023/05/19 02:50:22;;;;;;;31.13;14.30;;;;;;;-146.25;100.00;52155.31;2079129;28;27440;-61
2023/05/19 02:51:26;;;;;;;38.55;15.40;;;;;;;-146.25;100.00;52149.22;2079416;28;28411;-61
2023/05/19 02:52:28;;;;;;;28.15;14.95;;;;;;;-146.25;100.00;52143.13;2088704;28;20061;-61
2023/05/19 02:53:32;;;;;;;29.88;14.98;;;;;;;-146.25;100.00;52157.34;2079457;28;20081;-61
2023/05/19 02:54:34;;;;;;;33.28;15.40;;;;;;;-146.25;100.00;52183.69;2079300;28;20275;-61
2023/05/19 02:55:36;;;;;;;27.67;14.05;;;;;;;-146.25;100.00;52167.47;2088563;28;30472;-61
2023/05/19 02:56:38;;;;;;;30.48;15.25;;;;;;;-146.25;100.00;52157.34;2088058;28;31862;-61
2023/05/19 02:57:41;;;;;;;27.90;14.50;;;;;;;-146.25;100.00;52179.63;2087642;28;20176;-61
2023/05/19 02:58:46;;;;;;;29.92;14.77;;;;;;;-146.25;100.00;52165.44;2087429;28;27450;-61
2023/05/19 02:59:47;;;;;;;30.73;14.55;;;;;;;-146.25;100.00;52173.56;2079319;28;20041;-61
2023/05/19 03:00:50;;;;;;;27.67;14.55;;;;;;;-146.25;100.00;52179.63;2071173;28;20042;-61
2023/05/19 03:01:58;;;;;;;27.00;15.20;;;;;;;-146.25;100.00;52206.00;2087506;28;20156;-61
2023/05/19 03:03:01;;;;;;;24.52;14.43;;;;;;;-146.25;100.00;52159.34;2095333;28;22884;-60
2023/05/19 03:04:03;;;;;;;31.27;15.57;;;;;;;-146.25;100.00;52169.50;2088161;28;20049;-61
2023/05/19 03:05:07;;;;;;;24.48;14.27;;;;;;;-146.25;100.00;52175.56;2088948;28;20069;-61
2023/05/19 03:06:08;;;;;;;29.27;13.75;;;;;;;-146.25;100.00;52191.81;2087295;28;20076;-61
2023/05/19 03:07:12;;;;;;;27.73;14.32;;;;;;;-146.25;100.00;52147.19;2087591;28;27401;-61
2023/05/19 03:08:13;;;;;;;27.25;14.13;;;;;;;-146.25;100.00;52149.22;2087880;28;20688;-61
2023/05/19 03:09:15;;;;;;;23.58;13.73;;;;;;;-146.25;100.00;52163.41;2087977;28;20048;-61
2023/05/19 03:10:17;;;;;;;24.88;13.70;;;;;;;-146.25;100.00;52179.63;2087937;28;20147;-61
2023/05/19 03:11:19;;;;;;;30.30;15.20;;;;;;;-146.25;100.00;52169.50;2087655;28;20245;-61
2023/05/19 03:12:24;;;;;;;28.70;14.70;;;;;;;-146.25;100.00;52165.44;2087238;28;20158;-60
2023/05/19 03:13:25;;;;;;;28.48;14.35;;;;;;;-146.25;100.00;52155.31;2087831;28;21677;-61
2023/05/19 03:14:27;;;;;;;27.10;14.27;;;;;;;-146.25;100.00;52141.13;2088010;28;26940;-61
2023/05/19 03:15:31;;;;;;;28.90;14.18;;;;;;;-146.25;100.00;52165.44;2087098;28;34934;-61
2023/05/19 03:16:33;;;;;;;26.60;13.75;;;;;;;-146.25;100.00;52191.81;2087573;28;20973;-61
2023/05/19 03:17:35;;;;;;;23.33;12.68;;;;;;;-146.25;100.00;52165.44;2088174;28;20107;-61
2023/05/19 03:18:37;;;;;;;25.10;12.68;;;;;;;-146.25;100.00;52116.78;2088908;28;20168;-61
2023/05/19 03:19:39;;;;;;;22.50;12.32;;;;;;;-146.25;100.00;52143.13;2088447;28;20914;-61
2023/05/19 03:20:43;;;;;;;28.15;13.77;;;;;;;-146.25;100.00;52139.09;2087907;28;28110;-60
2023/05/19 03:21:46;;;;;;;19.88;12.45;;;;;;;-146.25;100.00;52222.22;2087614;28;25273;-61
2023/05/19 03:22:47;;;;;;;23.38;12.93;;;;;;;-146.25;100.00;52165.44;2079466;28;20046;-61
2023/05/19 03:23:49;;;;;;;24.27;11.68;;;;;;;-146.25;100.00;52189.78;2078998;28;29646;-61
2023/05/19 03:24:53;;;;;;;19.15;12.27;;;;;;;-146.25;100.00;52116.78;2088438;28;20093;-60
2023/05/19 03:25:55;;;;;;;22.67;12.23;;;;;;;-146.25;100.00;52153.28;2088002;28;27101;-61
2023/05/19 03:26:57;;;;;;;22.08;11.93;;;;;;;-146.25;100.00;52161.38;2088252;28;20040;-61
2023/05/19 03:27:59;;;;;;;21.45;11.27;;;;;;;-146.25;100.00;52157.34;2087719;28;20215;-61
2023/05/19 03:29:03;;;;;;;25.02;11.65;;;;;;;-146.25;100.00;52177.59;2087910;28;20076;-61
2023/05/19 03:30:09;;;;;;;20.40;11.90;;;;;;;-146.25;100.00;52179.63;2087551;28;20889;-61
2023/05/19 03:31:25;;;;;;;18.92;10.70;;;;;;;-146.25;100.00;52187.75;2087751;28;20080;-61
2023/05/19 03:32:27;;;;;;;21.23;10.45;;;;;;;-146.25;100.00;52173.56;2087756;28;21006;-61
2023/05/19 03:33:29;;;;;;;20.88;11.38;;;;;;;-146.25;100.00;52185.72;2087319;28;29932;-61
2023/05/19 03:34:31;;;;;;;19.33;10.80;;;;;;;-146.25;100.00;52191.81;2079595;28;20132;-61
2023/05/19 03:35:35;;;;;;;26.65;10.73;;;;;;;-146.25;100.00;52157.34;2078875;28;27440;-60
2023/05/19 03:36:38;;;;;;;22.45;10.50;;;;;;;-146.25;100.00;52153.28;2079428;28;20129;-61
2023/05/19 03:37:44;;;;;;;14.60;9.43;;;;;;;-146.25;100.00;52175.56;2080238;28;20132;-61
2023/05/19 03:38:50;;;;;;;18.67;9.88;;;;;;;-146.25;100.00;52139.09;2079365;28;20050;-61
2023/05/19 03:39:52;;;;;;;16.95;9.27;;;;;;;-146.25;100.00;52177.59;2071572;28;20046;-61
2023/05/19 03:40:53;;;;;;;18.15;9.63;;;;;;;-146.25;100.00;52189.78;2071386;28;20042;-61
2023/05/19 03:41:55;;;;;;;19.60;9.50;;;;;;;-146.25;100.00;52133.00;2079499;28;20992;-61
2023/05/19 03:42:57;;;;;;;19.40;9.75;;;;;;;-146.25;100.00;52181.66;2088265;28;20882;-61
2023/05/19 03:43:59;;;;;;;14.75;9.55;;;;;;;-146.25;100.00;52169.50;2087368;28;20924;-61
2023/05/19 03:45:02;;;;;;;17.30;10.15;;;;;;;-146.25;100.00;52169.50;2087800;28;20046;-60
2023/05/19 03:46:04;;;;;;;18.08;9.50;;;;;;;-146.25;100.00;52137.06;2079526;28;20093;-61
2023/05/19 03:47:30;;;;;;;16.88;9.00;;;;;;;-146.25;100.00;52181.66;2082512;28;20099;-60
2023/05/19 03:48:49;;;;;;;21.08;8.90;;;;;;;-146.25;100.00;52179.63;2084903;28;20045;-60
2023/05/19 03:49:53;;;;;;;15.50;8.73;;;;;;;-146.25;100.00;52163.41;2079632;28;20042;-60
2023/05/19 03:51:14;;;;;;;20.50;10.05;;;;;;;-146.25;100.00;52153.28;2087675;28;20041;-61
2023/05/19 03:52:16;;;;;;;17.15;9.55;;;;;;;-146.25;100.00;52149.22;2079520;28;20693;-61
2023/05/19 03:53:33;;;;;;;17.17;9.48;;;;;;;-146.25;100.00;52159.34;2081405;28;20056;-61
2023/05/19 03:54:38;;;;;;;16.38;9.38;;;;;;;-146.25;100.00;52226.25;2079465;28;20820;-60
2023/05/19 03:55:40;;;;;;;18.13;9.43;;;;;;;-146.25;100.00;52222.22;2078995;28;31553;-61
2023/05/19 03:56:42;;;;;;;16.08;9.68;;;;;;;-146.25;100.00;52189.78;2087609;28;25277;-60
2023/05/19 03:57:44;;;;;;;16.73;9.10;;;;;;;-146.25;100.00;52181.66;2088487;28;25925;-61
2023/05/19 03:58:47;;;;;;;15.02;8.85;;;;;;;-146.25;100.00;52171.53;2080584;28;23847;-60
2023/05/19 03:59:48;;;;;;;15.60;8.85;;;;;;;-146.25;100.00;52173.56;2080557;28;20050;-61
2023/05/19 04:00:50;;;;;;;16.85;9.02;;;;;;;-146.25;100.00;52189.78;2088772;28;20033;-61
2023/05/19 04:01:52;;;;;;;17.75;8.88;;;;;;;-146.25;100.00;52238.44;2088029;28;27184;-61
2023/05/19 04:02:54;;;;;;;12.02;8.50;;;;;;;-146.25;100.00;52206.00;2088283;28;20060;-61
2023/05/19 04:03:56;;;;;;;13.85;8.88;;;;;;;-146.25;100.00;52189.78;2080557;28;28697;-61
2023/05/19 04:04:58;;;;;;;16.73;9.48;;;;;;;-146.25;100.00;52157.34;2079923;28;25484;-61
2023/05/19 04:05:59;;;;;;;17.40;9.27;;;;;;;-146.25;100.00;52240.47;2087906;28;29746;-61
2023/05/19 04:07:01;;;;;;;16.05;8.50;;;;;;;-146.25;100.00;52203.97;2096722;28;30197;-61
2023/05/19 04:08:03;;;;;;;13.43;9.00;;;;;;;-146.25;100.00;52216.13;2088891;28;23993;-61
2023/05/19 04:09:12;;;;;;;16.38;8.48;;;;;;;-146.25;100.00;52230.31;2088271;28;28638;-60
2023/05/19 04:10:14;;;;;;;14.30;8.82;;;;;;;-146.25;100.00;52191.81;2087422;28;36213;-61
2023/05/19 04:11:16;;;;;;;20.35;8.80;;;;;;;-146.25;100.00;52163.41;2088791;28;26496;-61
2023/05/19 04:12:17;;;;;;;15.35;8.15;;;;;;;-146.25;100.00;52210.03;2088897;28;26685;-61
2023/05/19 04:13:20;;;;;;;15.40;8.10;;;;;;;-146.25;100.00;52210.03;2089698;28;20962;-61
2023/05/19 04:14:22;;;;;;;12.88;8.00;;;;;;;-146.25;100.00;52210.03;2089395;28;21396;-61
2023/05/19 04:15:24;;;;;;;12.02;8.00;;;;;;;-146.25;100.00;52220.19;2089147;28;20041;-61
2023/05/19 04:16:26;;;;;;;16.88;8.20;;;;;;;-146.25;100.00;52191.81;2088915;28;20088;-61
2023/05/19 04:17:28;;;;;;;16.05;8.27;;;;;;;-146.25;100.00;52206.00;2080088;28;23530;-61
2023/05/19 04:18:30;;;;;;;12.65;7.70;;;;;;;-146.25;100.00;52212.06;2088716;28;20164;-61
2023/05/19 04:19:32;;;;;;;13.38;7.75;;;;;;;-146.25;100.00;52216.13;2096748;28;25542;-61
2023/05/19 04:20:35;;;;;;;12.70;7.30;;;;;;;-146.25;100.00;52195.84;2089667;28;20168;-61
2023/05/19 04:21:37;;;;;;;16.75;7.93;;;;;;;-146.25;100.00;52220.19;2089118;28;29916;-61
2023/05/19 04:22:40;;;;;;;10.88;7.70;;;;;;;-146.25;100.00;52177.59;2088794;28;20160;-60
2023/05/19 04:23:42;;;;;;;12.38;6.97;;;;;;;-146.25;100.00;52210.03;2080783;28;20180;-61
2023/05/19 04:24:45;;;;;;;12.65;7.07;;;;;;;-146.25;100.00;52197.88;2080654;28;20081;-62
2023/05/19 04:25:47;;;;;;;12.25;7.38;;;;;;;-146.25;100.00;52189.78;2080602;28;20041;-61
2023/05/19 04:26:49;;;;;;;10.20;6.95;;;;;;;-146.25;100.00;52226.25;2081357;28;20124;-60
2023/05/19 04:27:52;;;;;;;15.35;7.45;;;;;;;-146.25;100.00;52222.22;2088464;28;20049;-61
2023/05/19 04:28:55;;;;;;;11.90;6.82;;;;;;;-146.25;100.00;52248.56;2080047;28;20150;-61
2023/05/19 04:29:58;;;;;;;12.13;6.90;;;;;;;-146.25;100.00;52199.91;2089717;28;20147;-61
2023/05/19 04:31:00;;;;;;;12.25;7.15;;;;;;;-146.25;100.00;52214.09;2087925;28;37493;-61
2023/05/19 04:32:05;;;;;;;11.80;6.45;;;;;;;-146.25;100.00;52220.19;2088691;28;20042;-61
2023/05/19 04:33:10;;;;;;;13.25;6.68;;;;;;;-146.25;100.00;52240.47;2088131;28;20265;-61
2023/05/19 04:34:12;;;;;;;9.40;6.07;;;;;;;-146.25;100.00;52232.34;2072797;28;20884;-61
2023/05/19 04:35:16;;;;;;;11.32;6.25;;;;;;;-146.25;100.00;52238.44;2080413;28;20042;-61
2023/05/19 04:36:20;;;;;;;10.43;6.00;;;;;;;-146.25;100.00;52210.03;2088150;28;25324;-61
2023/05/19 04:37:25;;;;;;;10.90;5.85;;;;;;;-146.25;100.00;52234.38;2087029;28;20099;-61
2023/05/19 04:38:28;;;;;;;9.68;5.90;;;;;;;-146.25;99.84;52222.22;2080539;28;20144;-61
2023/05/19 04:39:30;;;;;;;14.68;6.47;;;;;;;-146.25;94.95;52254.66;2088683;28;20048;-61
2023/05/19 04:40:33;;;;;;;12.45;6.28;;;;;;;-146.25;97.69;52260.72;2088605;28;20923;-61
2023/05/19 04:41:35;;;;;;;13.48;6.07;;;;;;;-146.25;89.73;52224.25;2088615;28;20085;-61
2023/05/19 04:42:44;;;;;;;10.45;5.50;;;;;;;-146.25;86.33;52222.22;2080144;28;20053;-61
2023/05/19 04:43:48;;;;;;;10.32;5.00;;;;;;;-146.25;81.52;52214.09;2081629;28;20041;-61
2023/05/19 04:44:52;;;;;;;8.25;4.53;;;;;;;-146.25;74.93;52228.28;2080399;28;20448;-61
2023/05/19 04:45:57;;;;;;;8.70;4.32;;;;;;;-146.25;73.38;52250.59;2088652;28;20046;-61
2023/05/19 04:46:59;;;;;;;8.88;4.35;;;;;;;-146.25;69.63;52228.28;2088309;28;20971;-61
2023/05/19 04:48:01;;;;;;;8.13;4.20;;;;;;;-146.25;69.95;52234.38;2080020;28;20049;-60
2023/05/19 04:49:03;;;;;;;7.30;4.57;;;;;;;-146.25;70.35;52246.53;2081190;28;20041;-61
2023/05/19 04:50:06;;;;;;;6.70;4.00;;;;;;;-146.25;66.87;52222.22;2088257;28;31126;-61
2023/05/19 04:51:10;;;;;;;8.10;3.78;;;;;;;-146.25;67.02;52193.81;2088468;28;20109;-61
2023/05/19 04:52:12;;;;;;;10.05;3.85;;;;;;;-146.25;65.52;52226.25;2080374;28;20037;-61